createdAt,value
2022-11-05T00:00:05.788Z,72.51
2022-11-05T00:03:26.589Z,72.77
2022-11-05T00:06:46.525Z,73.05
2022-11-05T00:09:49.333Z,72.47
2022-11-05T00:13:25.341Z,72.75
2022-11-05T00:16:44.682Z,73.12
2022-11-05T00:19:46.074Z,72.18
2022-11-05T00:23:06.337Z,72.76
2022-11-05T00:26:09.722Z,72.72
2022-11-05T00:29:11.122Z,72.89
2022-11-05T00:32:13.099Z,72.80
2022-11-05T00:35:15.662Z,72.46
2022-11-05T00:38:17.062Z,72.38
2022-11-05T00:41:18.481Z,73.35
2022-11-05T00:44:38.448Z,72.87
2022-11-05T00:47:58.830Z,72.72
2022-11-05T00:51:00.296Z,72.64
2022-11-05T00:54:01.785Z,72.33
2022-11-05T00:57:04.736Z,72.53
2022-11-05T01:00:06.833Z,72.48
2022-11-05T01:03:14.507Z,72.44
2022-11-05T01:06:17.401Z,72.13
2022-11-05T01:09:18.840Z,72.37
2022-11-05T01:12:20.234Z,72.57
2022-11-05T01:15:21.797Z,72.45
2022-11-05T01:18:24.415Z,72.48
2022-11-05T01:21:26.084Z,72.03
2022-11-05T01:24:27.629Z,72.66
2022-11-05T01:27:29.279Z,72.28
2022-11-05T01:30:31.446Z,72.44
2022-11-05T01:33:32.827Z,72.36
2022-11-05T01:36:34.254Z,72.60
2022-11-05T01:39:35.685Z,72.74
2022-11-05T01:42:37.059Z,72.54
2022-11-05T01:45:38.531Z,73.66
2022-11-05T01:48:40.271Z,73.14
2022-11-05T01:51:43.702Z,72.32
2022-11-05T01:54:47.147Z,72.73
2022-11-05T01:57:49.106Z,72.98
2022-11-05T02:00:50.992Z,72.83
2022-11-05T02:03:57.962Z,72.57
2022-11-05T02:06:59.933Z,72.78
2022-11-05T02:10:04.391Z,72.49
2022-11-05T02:13:05.853Z,72.70
2022-11-05T02:16:34.436Z,72.26
2022-11-05T02:19:58.762Z,72.03
2022-11-05T02:23:40.093Z,72.88
2022-11-05T02:27:03.477Z,73.17
2022-11-05T02:30:12.113Z,72.15
2022-11-05T02:33:31.095Z,73.15
2022-11-05T02:37:11.134Z,73.19
2022-11-05T02:40:33.714Z,72.73
2022-11-05T02:43:53.736Z,72.56
2022-11-05T02:47:17.966Z,72.22
2022-11-05T02:50:26.710Z,72.84
2022-11-05T02:53:38.464Z,73.23
2022-11-05T02:56:44.722Z,73.32
2022-11-05T02:59:46.161Z,73.54
2022-11-05T03:02:47.741Z,72.52
2022-11-05T03:06:14.243Z,72.72
2022-11-05T03:09:57.555Z,72.94
2022-11-05T03:13:14.344Z,73.38
2022-11-05T03:16:21.380Z,72.74
2022-11-05T03:19:41.021Z,73.24
2022-11-05T03:22:54.419Z,73.40
2022-11-05T03:26:04.580Z,72.96
2022-11-05T03:29:13.307Z,72.75
2022-11-05T03:32:17.272Z,73.48
2022-11-05T03:35:34.523Z,73.95
2022-11-05T03:38:40.129Z,75.38
2022-11-05T03:41:46.665Z,73.97
2022-11-05T03:44:52.486Z,74.18
2022-11-05T03:47:58.759Z,74.01
2022-11-05T03:51:29.471Z,74.25
2022-11-05T03:54:32.447Z,74.75
2022-11-05T03:57:39.299Z,74.33
2022-11-05T04:00:40.899Z,74.97
2022-11-05T04:03:42.374Z,74.94
2022-11-05T04:07:02.523Z,75.00
2022-11-05T04:10:22.878Z,74.90
2022-11-05T04:13:24.299Z,75.69
2022-11-05T04:16:44.518Z,74.66
2022-11-05T04:20:04.413Z,75.49
2022-11-05T04:23:25.701Z,75.19
2022-11-05T04:26:27.089Z,74.28
2022-11-05T04:29:47.233Z,74.65
2022-11-05T04:32:56.519Z,74.43
2022-11-05T04:35:57.910Z,73.83
2022-11-05T04:38:59.444Z,74.50
2022-11-05T04:42:00.937Z,74.06
2022-11-05T04:45:02.351Z,74.49
2022-11-05T04:48:04.390Z,74.04
2022-11-05T04:51:06.038Z,74.63
2022-11-05T04:54:07.622Z,74.48
2022-11-05T04:57:09.035Z,74.13
2022-11-05T05:00:11.361Z,74.15
2022-11-05T05:03:13.128Z,74.08
2022-11-05T05:06:15.646Z,73.61
2022-11-05T05:09:17.039Z,74.42
2022-11-05T05:12:18.544Z,73.76
2022-11-05T05:15:20.038Z,74.26
2022-11-05T05:18:21.475Z,74.39
2022-11-05T05:21:38.649Z,74.10
2022-11-05T05:24:40.049Z,74.34
2022-11-05T05:27:41.453Z,75.09
2022-11-05T05:30:43.000Z,74.24
2022-11-05T05:33:44.388Z,74.15
2022-11-05T05:36:45.856Z,74.69
2022-11-05T05:39:48.553Z,74.61
2022-11-05T05:42:55.528Z,73.89
2022-11-05T05:46:02.372Z,73.85
2022-11-05T05:49:09.441Z,73.97
2022-11-05T05:52:13.532Z,75.29
2022-11-05T05:55:15.281Z,74.22
2022-11-05T05:58:16.678Z,73.81
2022-11-05T06:01:19.570Z,72.65
2022-11-05T06:04:21.544Z,72.72
2022-11-05T06:07:23.050Z,73.84
2022-11-05T06:10:25.399Z,73.18
2022-11-05T06:13:26.942Z,73.09
2022-11-05T06:16:28.522Z,72.67
2022-11-05T06:19:29.910Z,72.44
2022-11-05T06:22:31.292Z,72.67
2022-11-05T06:25:35.993Z,72.56
2022-11-05T06:28:42.184Z,71.80
2022-11-05T06:31:43.651Z,71.40
2022-11-05T06:34:45.052Z,71.95
2022-11-05T06:37:46.487Z,71.76
2022-11-05T06:40:47.903Z,71.48
2022-11-05T06:43:49.278Z,71.42
2022-11-05T06:46:50.657Z,72.15
2022-11-05T06:49:52.307Z,72.71
2022-11-05T06:52:58.892Z,72.04
2022-11-05T06:56:05.519Z,72.55
2022-11-05T06:59:08.474Z,71.99
2022-11-05T07:02:12.680Z,71.49
2022-11-05T07:05:15.788Z,72.36
2022-11-05T07:08:17.285Z,72.02
2022-11-05T07:11:18.694Z,72.04
2022-11-05T07:14:20.166Z,71.35
2022-11-05T07:17:22.696Z,71.54
2022-11-05T07:20:25.631Z,72.50
2022-11-05T07:23:28.686Z,71.60
2022-11-05T07:26:34.411Z,71.49
2022-11-05T07:29:36.121Z,71.93
2022-11-05T07:32:43.898Z,71.80
2022-11-05T07:35:45.338Z,71.46
2022-11-05T07:38:46.803Z,70.99
2022-11-05T07:41:48.441Z,70.87
2022-11-05T07:44:49.969Z,70.63
2022-11-05T07:47:57.321Z,70.57
2022-11-05T07:50:58.723Z,70.43
2022-11-05T07:54:00.258Z,71.01
2022-11-05T07:57:01.622Z,71.98
2022-11-05T08:00:03.284Z,71.63
2022-11-05T08:03:16.668Z,72.31
2022-11-05T08:06:18.495Z,70.77
2022-11-05T08:09:19.939Z,70.87
2022-11-05T08:12:21.378Z,71.05
2022-11-05T08:15:23.755Z,69.86
2022-11-05T08:18:31.273Z,70.10
2022-11-05T08:21:32.661Z,70.23
2022-11-05T08:24:34.125Z,70.20
2022-11-05T08:27:35.494Z,70.13
2022-11-05T08:30:36.904Z,70.05
2022-11-05T08:33:38.426Z,69.62
2022-11-05T08:36:43.110Z,69.26
2022-11-05T08:39:44.564Z,71.16
2022-11-05T08:42:45.995Z,69.96
2022-11-05T08:45:47.718Z,70.37
2022-11-05T08:48:49.874Z,70.16
2022-11-05T08:51:51.318Z,70.05
2022-11-05T08:54:52.724Z,69.81
2022-11-05T08:57:58.960Z,69.59
2022-11-05T09:01:04.806Z,68.74
2022-11-05T09:04:06.841Z,68.85
2022-11-05T09:07:08.262Z,69.34
2022-11-05T09:10:10.037Z,68.97
2022-11-05T09:13:18.248Z,69.42
2022-11-05T09:16:23.375Z,69.76
2022-11-05T09:19:24.861Z,68.37
2022-11-05T09:22:26.339Z,68.78
2022-11-05T09:25:27.997Z,68.21
2022-11-05T09:28:31.495Z,68.63
2022-11-05T09:31:32.879Z,68.01
2022-11-05T09:34:34.672Z,68.04
2022-11-05T09:37:36.938Z,68.59
2022-11-05T09:40:47.385Z,66.96
2022-11-05T09:43:57.147Z,67.66
2022-11-05T09:47:05.053Z,67.41
2022-11-05T09:50:12.888Z,66.24
2022-11-05T09:53:17.417Z,67.94
2022-11-05T09:56:23.096Z,66.45
2022-11-05T09:59:29.844Z,66.20
2022-11-05T10:02:35.250Z,66.59
2022-11-05T10:05:37.317Z,66.08
2022-11-05T10:08:43.261Z,66.50
2022-11-05T10:11:49.940Z,64.88
2022-11-05T10:15:16.350Z,64.59
2022-11-05T10:18:49.228Z,63.42
2022-11-05T10:22:09.914Z,63.68
2022-11-05T10:25:19.586Z,63.78
2022-11-05T10:28:24.816Z,62.51
2022-11-05T10:31:35.158Z,63.46
2022-11-05T10:34:39.101Z,62.90
2022-11-05T10:37:41.345Z,62.65
2022-11-05T10:40:53.613Z,61.84
2022-11-05T10:44:22.102Z,63.04
2022-11-05T10:47:29.387Z,62.77
2022-11-05T10:50:31.402Z,62.86
2022-11-05T10:53:36.260Z,62.28
2022-11-05T10:56:40.115Z,63.50
2022-11-05T10:59:41.517Z,62.89
2022-11-05T11:02:49.321Z,63.37
2022-11-05T11:05:59.799Z,62.24
2022-11-05T11:09:03.623Z,62.87
2022-11-05T11:12:16.905Z,63.47
2022-11-05T11:15:25.993Z,62.11
2022-11-05T11:18:40.200Z,63.58
2022-11-05T11:21:41.891Z,64.49
2022-11-05T11:24:54.105Z,64.16
2022-11-05T11:27:55.969Z,63.58
2022-11-05T11:31:06.449Z,63.42
2022-11-05T11:34:26.903Z,64.08
2022-11-05T11:37:33.703Z,62.73
2022-11-05T11:40:37.858Z,61.57
2022-11-05T11:43:42.160Z,60.20
2022-11-05T11:46:48.673Z,61.94
2022-11-05T11:49:58.072Z,61.67
2022-11-05T11:53:21.218Z,61.05
2022-11-05T11:56:24.229Z,62.10
2022-11-05T12:00:01.927Z,62.13
2022-11-05T12:03:01.841Z,61.74
2022-11-05T12:06:35.881Z,62.13
2022-11-05T12:10:02.201Z,61.00
2022-11-05T12:13:18.888Z,60.94
2022-11-05T12:16:33.351Z,62.01
2022-11-05T12:19:46.947Z,61.31
2022-11-05T12:23:13.543Z,61.57
2022-11-05T12:26:28.943Z,61.03
2022-11-05T12:29:37.483Z,60.15
2022-11-05T12:33:05.548Z,60.51
2022-11-05T12:36:50.190Z,61.35
2022-11-05T12:40:23.855Z,61.05
2022-11-05T12:43:53.295Z,61.05
2022-11-05T12:47:32.949Z,60.53
2022-11-05T12:50:45.605Z,61.08
2022-11-05T12:54:16.648Z,60.99
2022-11-05T12:57:19.853Z,60.29
2022-11-05T13:00:24.417Z,60.95
2022-11-05T13:03:40.922Z,60.25
2022-11-05T13:06:47.140Z,60.21
2022-11-05T13:09:55.300Z,59.83
2022-11-05T13:13:12.149Z,60.11
2022-11-05T13:16:26.884Z,61.69
2022-11-05T13:19:41.094Z,60.93
2022-11-05T13:22:49.826Z,61.23
2022-11-05T13:25:57.739Z,61.54
2022-11-05T13:29:07.833Z,61.82
2022-11-05T13:32:24.474Z,62.19
2022-11-05T13:35:46.888Z,61.71
2022-11-05T13:39:00.194Z,61.63
2022-11-05T13:42:26.382Z,60.34
2022-11-05T13:46:07.918Z,56.45
2022-11-05T13:49:31.031Z,57.29
2022-11-05T13:52:55.188Z,58.24
2022-11-05T13:56:23.172Z,57.43
2022-11-05T13:59:51.034Z,58.93
2022-11-05T14:03:02.231Z,57.72
2022-11-05T14:06:06.603Z,56.95
2022-11-05T14:09:11.842Z,57.89
2022-11-05T14:12:35.920Z,58.73
2022-11-05T14:15:37.358Z,59.28
2022-11-05T14:18:40.911Z,59.85
2022-11-05T14:21:53.626Z,59.38
2022-11-05T14:24:55.130Z,60.12
2022-11-05T14:27:58.391Z,58.62
2022-11-05T14:31:00.577Z,59.13
2022-11-05T14:34:10.876Z,59.33
2022-11-05T14:37:12.496Z,60.18
2022-11-05T14:40:20.048Z,60.83
2022-11-05T14:43:24.467Z,60.49
2022-11-05T14:46:41.096Z,58.94
2022-11-05T14:49:54.925Z,58.86
2022-11-05T14:52:59.707Z,58.77
2022-11-05T14:56:06.841Z,57.72
2022-11-05T14:59:28.336Z,59.45
2022-11-05T15:02:36.552Z,58.33
2022-11-05T15:05:47.994Z,60.10
2022-11-05T15:08:49.651Z,57.09
2022-11-05T15:12:02.330Z,58.57
2022-11-05T15:15:21.308Z,56.86
2022-11-05T15:18:43.252Z,57.71
2022-11-05T15:21:45.470Z,58.75
2022-11-05T15:24:47.427Z,59.37
2022-11-05T15:28:02.569Z,60.26
2022-11-05T15:31:13.313Z,59.79
2022-11-05T15:34:30.972Z,59.38
2022-11-05T15:37:32.343Z,59.98
2022-11-05T15:40:33.876Z,60.20
2022-11-05T15:43:35.410Z,61.01
2022-11-05T15:46:36.813Z,61.10
2022-11-05T15:49:38.690Z,60.49
2022-11-05T15:52:48.704Z,60.71
2022-11-05T15:55:55.780Z,62.85
2022-11-05T15:59:03.563Z,63.40
2022-11-05T16:02:26.919Z,63.68
2022-11-05T16:05:33.518Z,63.63
2022-11-05T16:08:35.889Z,65.14
2022-11-05T16:11:37.309Z,66.02
2022-11-05T16:14:39.262Z,66.07
2022-11-05T16:17:58.757Z,66.26
2022-11-05T16:21:11.941Z,66.54
2022-11-05T16:24:29.096Z,67.11
2022-11-05T16:27:30.810Z,67.48
2022-11-05T16:30:32.465Z,67.06
2022-11-05T16:33:45.733Z,67.17
2022-11-05T16:36:47.156Z,67.79
2022-11-05T16:39:48.569Z,68.02
2022-11-05T16:42:52.201Z,67.60
2022-11-05T16:45:57.029Z,66.67
2022-11-05T16:48:58.407Z,66.74
2022-11-05T16:52:00.168Z,67.39
2022-11-05T16:55:01.690Z,68.01
2022-11-05T16:58:03.140Z,67.84
2022-11-05T17:01:10.185Z,68.23
2022-11-05T17:04:13.041Z,68.49
2022-11-05T17:07:14.466Z,66.69
2022-11-05T17:10:16.480Z,66.90
2022-11-05T17:13:19.551Z,67.63
2022-11-05T17:16:20.946Z,66.93
2022-11-05T17:19:22.327Z,67.47
2022-11-05T17:22:23.706Z,67.93
2022-11-05T17:25:25.638Z,68.27
2022-11-05T17:28:28.940Z,68.39
2022-11-05T17:31:30.398Z,69.64
2022-11-05T17:34:31.888Z,69.22
2022-11-05T17:37:36.360Z,68.48
2022-11-05T17:40:38.328Z,68.84
2022-11-05T17:43:39.942Z,66.93
2022-11-05T17:46:41.374Z,67.39
2022-11-05T17:49:42.770Z,68.14
2022-11-05T17:52:44.604Z,69.13
2022-11-05T17:55:46.897Z,68.83
2022-11-05T17:58:48.254Z,67.92
2022-11-05T18:01:49.941Z,67.55
2022-11-05T18:04:51.550Z,68.06
2022-11-05T18:07:53.034Z,68.53
2022-11-05T18:10:54.515Z,69.39
2022-11-05T18:13:55.909Z,68.85
2022-11-05T18:17:00.001Z,68.82
2022-11-05T18:20:01.866Z,68.06
2022-11-05T18:23:03.396Z,67.04
2022-11-05T18:26:13.032Z,67.23
2022-11-05T18:29:14.454Z,68.34
2022-11-05T18:32:15.831Z,68.71
2022-11-05T18:35:17.293Z,67.96
2022-11-05T18:38:18.817Z,68.28
2022-11-05T18:41:21.557Z,68.48
2022-11-05T18:44:24.694Z,68.00
2022-11-05T18:47:26.101Z,67.97
2022-11-05T18:50:28.565Z,69.18
2022-11-05T18:53:30.023Z,68.87
2022-11-05T18:56:31.457Z,68.58
2022-11-05T18:59:38.600Z,69.00
2022-11-05T19:02:41.171Z,68.44
2022-11-05T19:05:42.835Z,68.26
2022-11-05T19:08:44.584Z,69.14
2022-11-05T19:11:46.202Z,68.42
2022-11-05T19:14:47.639Z,67.46
2022-11-05T19:17:49.018Z,67.81
2022-11-05T19:20:50.451Z,67.56
2022-11-05T19:23:53.027Z,67.83
2022-11-05T19:26:54.427Z,67.62
2022-11-05T19:29:55.830Z,67.35
2022-11-05T19:32:57.279Z,67.13
2022-11-05T19:35:58.916Z,67.72
2022-11-05T19:39:04.333Z,68.09
2022-11-05T19:42:06.647Z,67.02
2022-11-05T19:45:30.172Z,66.83
2022-11-05T19:48:31.394Z,66.99
2022-11-05T19:51:32.948Z,67.79
2022-11-05T19:54:35.862Z,68.40
2022-11-05T19:57:37.424Z,68.43
2022-11-05T20:00:39.177Z,68.48
2022-11-05T20:03:41.207Z,68.03
2022-11-05T20:06:42.660Z,67.80
2022-11-05T20:09:44.047Z,68.52
2022-11-05T20:12:45.432Z,68.59
2022-11-05T20:15:47.066Z,68.49
2022-11-05T20:18:48.883Z,67.65
2022-11-05T20:21:50.366Z,68.54
2022-11-05T20:24:51.917Z,68.33
2022-11-05T20:27:53.415Z,69.05
2022-11-05T20:30:57.456Z,69.09
2022-11-05T20:33:58.876Z,68.32
2022-11-05T20:37:00.770Z,67.29
2022-11-05T20:40:02.163Z,67.51
2022-11-05T20:43:03.554Z,68.18
2022-11-05T20:46:04.978Z,69.45
2022-11-05T20:49:06.794Z,68.90
2022-11-05T20:52:08.186Z,68.15
2022-11-05T20:55:09.894Z,68.84
2022-11-05T20:58:12.661Z,68.73
2022-11-05T21:01:16.441Z,68.39
2022-11-05T21:04:17.947Z,68.17
2022-11-05T21:07:19.360Z,67.79
2022-11-05T21:10:20.932Z,67.51
2022-11-05T21:13:23.378Z,67.31
2022-11-05T21:16:24.753Z,66.86
2022-11-05T21:19:26.125Z,68.00
2022-11-05T21:22:27.501Z,67.31
2022-11-05T21:25:28.991Z,68.15
2022-11-05T21:28:30.408Z,68.40
2022-11-05T21:31:31.808Z,67.95
2022-11-05T21:34:33.327Z,68.04
2022-11-05T21:37:34.745Z,68.89
2022-11-05T21:40:36.666Z,68.31
2022-11-05T21:43:38.714Z,68.78
2022-11-05T21:46:40.275Z,68.02
2022-11-05T21:49:41.698Z,68.25
2022-11-05T21:53:01.716Z,68.06
2022-11-05T21:56:39.291Z,68.38
2022-11-05T21:59:51.570Z,68.85
2022-11-05T22:02:53.147Z,68.67
2022-11-05T22:05:56.357Z,68.75
2022-11-05T22:08:57.771Z,67.52
2022-11-05T22:12:00.133Z,67.50
2022-11-05T22:15:01.649Z,67.86
2022-11-05T22:18:03.371Z,68.18
2022-11-05T22:21:05.152Z,68.03
2022-11-05T22:24:07.322Z,69.21
2022-11-05T22:27:13.525Z,67.40
2022-11-05T22:30:15.029Z,67.77
2022-11-05T22:33:17.185Z,67.68
2022-11-05T22:36:18.634Z,68.16
2022-11-05T22:39:20.571Z,67.71
2022-11-05T22:42:22.920Z,67.79
2022-11-05T22:45:24.396Z,67.77
2022-11-05T22:48:25.837Z,67.55
2022-11-05T22:51:30.538Z,68.09
2022-11-05T22:54:37.879Z,66.63
2022-11-05T22:57:40.400Z,67.58
2022-11-05T23:00:41.780Z,67.10
2022-11-05T23:03:45.552Z,67.15
2022-11-05T23:07:05.613Z,67.89
2022-11-05T23:10:27.550Z,67.39
2022-11-05T23:13:28.974Z,67.76
2022-11-05T23:17:03.386Z,67.34
2022-11-05T23:20:29.757Z,69.41
2022-11-05T23:23:49.613Z,68.61
2022-11-05T23:26:51.037Z,67.80
2022-11-05T23:29:52.575Z,67.63
2022-11-05T23:32:55.478Z,67.92
2022-11-05T23:36:15.341Z,66.95
2022-11-05T23:39:16.861Z,67.84
2022-11-05T23:42:37.466Z,67.06
2022-11-05T23:45:49.560Z,66.69
2022-11-05T23:48:52.614Z,67.47
2022-11-05T23:51:53.988Z,66.99
2022-11-05T23:55:02.108Z,66.93
2022-11-05T23:58:03.823Z,68.05
